createdAt,value
2018-09-16T00:04:41.032Z,96474.00
2018-09-16T00:10:10.612Z,96469.00
2018-09-16T00:15:40.375Z,96454.00
2018-09-16T00:21:09.904Z,96454.00
2018-09-16T00:26:39.519Z,96459.00
2018-09-16T00:32:14.591Z,96458.00
2018-09-16T00:37:44.178Z,96453.00
2018-09-16T00:43:13.521Z,96442.00
2018-09-16T00:48:43.368Z,96437.00
2018-09-16T00:54:13.857Z,96432.00
2018-09-16T00:59:43.321Z,96424.00
2018-09-16T01:05:13.179Z,96430.00
2018-09-16T01:10:43.560Z,96418.00
2018-09-16T01:16:12.929Z,96416.00
2018-09-16T01:21:42.353Z,96417.00
2018-09-16T01:27:11.961Z,96404.00
2018-09-16T01:32:41.366Z,96398.00
2018-09-16T01:38:15.883Z,96395.00
2018-09-16T01:43:45.232Z,96396.00
2018-09-16T01:49:14.531Z,96393.00
2018-09-16T01:54:43.957Z,96387.00
2018-09-16T02:00:17.578Z,96375.00
2018-09-16T02:05:53.217Z,96379.00
2018-09-16T02:11:22.541Z,96370.00
2018-09-16T02:16:51.778Z,96365.00
2018-09-16T02:22:21.151Z,96358.00
2018-09-16T02:27:50.464Z,96362.00
2018-09-16T02:33:24.185Z,96354.00
2018-09-16T02:38:54.295Z,96356.00
2018-09-16T02:44:30.304Z,96359.00
2018-09-16T02:50:06.088Z,96357.00
2018-09-16T02:55:35.405Z,96359.00
2018-09-16T03:01:09.174Z,96359.00
2018-09-16T03:06:38.503Z,96363.00
2018-09-16T03:12:07.976Z,96360.00
2018-09-16T03:17:37.346Z,96359.00
2018-09-16T03:23:06.619Z,96345.00
2018-09-16T03:28:35.960Z,96341.00
2018-09-16T03:34:05.193Z,96336.00
2018-09-16T03:39:34.572Z,96340.00
2018-09-16T03:45:03.876Z,96329.00
2018-09-16T03:50:33.160Z,96338.00
2018-09-16T03:56:08.716Z,96339.00
2018-09-16T04:01:38.104Z,96331.00
2018-09-16T04:07:09.492Z,96328.00
2018-09-16T04:12:38.936Z,96325.00
2018-09-16T04:18:08.415Z,96322.00
2018-09-16T04:23:42.296Z,96325.00
2018-09-16T04:29:11.674Z,96324.00
2018-09-16T04:34:41.193Z,96318.00
2018-09-16T04:40:10.731Z,96327.00
2018-09-16T04:45:40.114Z,96314.00
2018-09-16T04:51:09.492Z,96313.00
2018-09-16T04:56:40.873Z,96319.00
2018-09-16T05:02:10.159Z,96327.00
2018-09-16T05:07:39.484Z,96326.00
2018-09-16T05:13:08.879Z,96325.00
2018-09-16T05:18:38.308Z,96333.00
2018-09-16T05:24:08.187Z,96324.00
2018-09-16T05:29:37.525Z,96325.00
2018-09-16T05:35:06.950Z,96321.00
2018-09-16T05:40:36.196Z,96330.00
2018-09-16T05:46:05.591Z,96328.00
2018-09-16T05:51:34.922Z,96327.00
2018-09-16T05:57:04.212Z,96323.00
2018-09-16T06:02:33.451Z,96313.00
2018-09-16T06:08:04.878Z,96323.00
2018-09-16T06:13:34.159Z,96316.00
2018-09-16T06:19:03.487Z,96323.00
2018-09-16T06:24:33.799Z,96325.00
2018-09-16T06:30:03.112Z,96321.00
2018-09-16T06:35:32.393Z,96317.00
2018-09-16T06:41:01.667Z,96326.00
2018-09-16T06:46:31.183Z,96323.00
2018-09-16T06:52:00.543Z,96325.00
2018-09-16T06:57:29.884Z,96328.00
2018-09-16T07:02:59.194Z,96327.00
2018-09-16T07:08:28.614Z,96332.00
2018-09-16T07:13:57.947Z,96325.00
2018-09-16T07:19:27.239Z,96337.00
2018-09-16T07:24:56.459Z,96347.00
2018-09-16T07:30:30.170Z,96344.00
2018-09-16T07:36:00.475Z,96341.00
2018-09-16T07:41:29.825Z,96346.00
2018-09-16T07:47:00.272Z,96344.00
2018-09-16T07:52:30.172Z,96343.00
2018-09-16T07:58:00.951Z,96343.00
2018-09-16T08:03:32.557Z,96340.00
2018-09-16T08:09:02.144Z,96342.00
2018-09-16T08:14:33.197Z,96345.00
2018-09-16T08:20:03.400Z,96340.00
2018-09-16T08:25:32.815Z,96351.00
2018-09-16T08:31:02.239Z,96346.00
2018-09-16T08:36:32.548Z,96341.00
2018-09-16T08:42:05.023Z,96335.00
2018-09-16T08:47:34.547Z,96338.00
2018-09-16T08:53:03.856Z,96328.00
2018-09-16T08:58:33.417Z,96324.00
2018-09-16T09:04:02.743Z,96330.00
2018-09-16T09:09:32.299Z,96327.00
2018-09-16T09:15:02.490Z,96319.00
2018-09-16T09:20:31.884Z,96321.00
2018-09-16T09:26:01.261Z,96321.00
2018-09-16T09:31:30.563Z,96325.00
2018-09-16T09:37:00.019Z,96325.00
2018-09-16T09:42:29.447Z,96318.00
2018-09-16T09:48:00.100Z,96315.00
2018-09-16T09:53:29.571Z,96313.00
2018-09-16T09:58:58.919Z,96305.00
2018-09-16T10:04:28.244Z,96307.00
2018-09-16T10:09:57.543Z,96303.00
2018-09-16T10:15:26.779Z,96294.00
2018-09-16T10:20:56.098Z,96284.00
2018-09-16T10:26:25.435Z,96286.00
2018-09-16T10:31:54.806Z,96277.00
2018-09-16T10:37:24.099Z,96262.00
2018-09-16T10:42:53.340Z,96269.00
2018-09-16T10:48:24.113Z,96256.00
2018-09-16T10:53:54.433Z,96259.00
2018-09-16T10:59:23.724Z,96257.00
2018-09-16T11:04:52.998Z,96248.00
2018-09-16T11:10:22.442Z,96242.00
2018-09-16T11:15:51.821Z,96248.00
2018-09-16T11:21:21.056Z,96237.00
2018-09-16T11:26:50.355Z,96237.00
2018-09-16T11:32:19.632Z,96236.00
2018-09-16T11:37:49.127Z,96231.00
2018-09-16T11:43:18.441Z,96220.00
2018-09-16T11:48:48.180Z,96219.00
2018-09-16T11:54:18.955Z,96212.00
2018-09-16T11:59:48.475Z,96222.00
2018-09-16T12:05:18.131Z,96219.00
2018-09-16T12:10:47.563Z,96208.00
2018-09-16T12:16:17.013Z,96206.00
2018-09-16T12:21:46.722Z,96204.00
2018-09-16T12:27:15.996Z,96202.00
2018-09-16T12:32:46.490Z,96195.00
2018-09-16T12:38:16.392Z,96194.00
2018-09-16T12:43:45.829Z,96196.00
2018-09-16T12:49:16.517Z,96188.00
2018-09-16T12:54:46.969Z,96180.00
2018-09-16T13:00:16.187Z,96175.00
2018-09-16T13:05:45.665Z,96175.00
2018-09-16T13:11:16.137Z,96173.00
2018-09-16T13:16:46.118Z,96172.00
2018-09-16T13:22:16.520Z,96164.00
2018-09-16T13:27:45.992Z,96161.00
2018-09-16T13:33:15.348Z,96161.00
2018-09-16T13:38:45.004Z,96155.00
2018-09-16T13:44:14.761Z,96150.00
2018-09-16T13:49:44.781Z,96138.00
2018-09-16T13:55:14.888Z,96126.00
2018-09-16T14:00:44.688Z,96119.00
2018-09-16T14:06:14.360Z,96112.00
2018-09-16T14:11:44.049Z,96108.00
2018-09-16T14:17:13.774Z,96090.00
2018-09-16T14:22:43.396Z,96069.00
2018-09-16T14:28:13.084Z,96071.00
2018-09-16T14:33:42.437Z,96069.00
2018-09-16T14:39:12.116Z,96068.00
2018-09-16T14:44:41.606Z,96082.00
2018-09-16T14:50:11.811Z,96067.00
2018-09-16T14:55:41.247Z,96077.00
2018-09-16T15:01:15.349Z,96091.00
2018-09-16T15:06:44.928Z,96097.00
2018-09-16T15:12:14.624Z,96107.00
2018-09-16T15:17:44.165Z,96107.00
2018-09-16T15:23:13.818Z,96115.00
2018-09-16T15:28:43.242Z,96106.00
2018-09-16T15:34:14.020Z,96106.00
2018-09-16T15:39:44.058Z,96102.00
2018-09-16T15:45:13.832Z,96103.00
2018-09-16T15:50:43.421Z,96101.00
2018-09-16T15:56:13.199Z,96101.00
2018-09-16T16:01:42.863Z,96104.00
2018-09-16T16:07:13.816Z,96099.00
2018-09-16T16:12:43.405Z,96098.00
2018-09-16T16:18:12.991Z,96103.00
2018-09-16T16:23:42.493Z,96099.00
2018-09-16T16:29:12.146Z,96099.00
2018-09-16T16:34:43.749Z,96103.00
2018-09-16T16:40:15.090Z,96100.00
2018-09-16T16:45:46.567Z,96096.00
2018-09-16T16:51:17.435Z,96101.00
2018-09-16T16:56:47.662Z,96108.00
2018-09-16T17:02:19.055Z,96115.00
2018-09-16T17:07:48.700Z,96109.00
2018-09-16T17:13:18.275Z,96120.00
2018-09-16T17:18:48.545Z,96128.00
2018-09-16T17:24:18.449Z,96124.00
2018-09-16T17:29:48.124Z,96135.00
2018-09-16T17:35:17.515Z,96131.00
2018-09-16T17:40:46.915Z,96139.00
2018-09-16T17:46:21.794Z,96140.00
2018-09-16T17:51:51.111Z,96140.00
2018-09-16T17:57:20.367Z,96146.00
2018-09-16T18:02:49.648Z,96152.00
2018-09-16T18:08:25.065Z,96145.00
2018-09-16T18:13:54.299Z,96162.00
2018-09-16T18:19:23.571Z,96172.00
2018-09-16T18:24:53.150Z,96175.00
2018-09-16T18:30:22.590Z,96179.00
2018-09-16T18:35:51.836Z,96183.00
2018-09-16T18:41:21.136Z,96191.00
2018-09-16T18:46:51.524Z,96181.00
2018-09-16T18:52:20.766Z,96183.00
2018-09-16T18:57:50.180Z,96195.00
2018-09-16T19:03:21.759Z,96186.00
2018-09-16T19:08:52.124Z,96186.00
2018-09-16T19:14:21.555Z,96194.00
2018-09-16T19:19:50.873Z,96200.00
2018-09-16T19:25:20.280Z,96195.00
2018-09-16T19:30:49.717Z,96207.00
2018-09-16T19:36:19.314Z,96210.00
2018-09-16T19:41:48.600Z,96204.00
2018-09-16T19:47:18.937Z,96208.00
2018-09-16T19:52:48.747Z,96212.00
2018-09-16T19:58:19.137Z,96203.00
2018-09-16T20:03:52.987Z,96201.00
2018-09-16T20:09:22.421Z,96193.00
2018-09-16T20:14:51.672Z,96194.00
2018-09-16T20:20:21.371Z,96193.00
2018-09-16T20:25:50.927Z,96191.00
2018-09-16T20:31:20.552Z,96192.00
2018-09-16T20:36:50.760Z,96203.00
2018-09-16T20:42:20.024Z,96212.00
2018-09-16T20:47:49.440Z,96203.00
2018-09-16T20:53:18.750Z,96198.00
2018-09-16T20:58:48.898Z,96201.00
2018-09-16T21:04:19.357Z,96211.00
2018-09-16T21:09:48.838Z,96200.00
2018-09-16T21:15:18.800Z,96206.00
2018-09-16T21:20:48.346Z,96215.00
2018-09-16T21:26:17.764Z,96220.00
2018-09-16T21:31:47.044Z,96237.00
2018-09-16T21:37:16.393Z,96222.00
2018-09-16T21:42:45.963Z,96233.00
2018-09-16T21:48:15.428Z,96230.00
2018-09-16T21:53:44.877Z,96228.00
2018-09-16T21:59:14.204Z,96221.00
2018-09-16T22:04:43.736Z,96234.00
2018-09-16T22:10:13.117Z,96220.00
2018-09-16T22:15:42.463Z,96219.00
2018-09-16T22:21:12.078Z,96214.00
2018-09-16T22:26:41.479Z,96203.00
2018-09-16T22:32:10.907Z,96207.00
2018-09-16T22:37:40.312Z,96210.00
2018-09-16T22:43:09.792Z,96210.00
2018-09-16T22:48:39.391Z,96201.00
2018-09-16T22:54:09.139Z,96210.00
2018-09-16T22:59:38.603Z,96209.00
2018-09-16T23:05:08.183Z,96218.00
2018-09-16T23:10:37.516Z,96201.00
2018-09-16T23:16:06.932Z,96195.00
2018-09-16T23:21:37.482Z,96189.00
2018-09-16T23:27:06.988Z,96188.00
2018-09-16T23:32:37.435Z,96184.00
2018-09-16T23:38:07.281Z,96172.00
2018-09-16T23:43:37.084Z,96160.00
2018-09-16T23:49:06.489Z,96163.00
2018-09-16T23:54:35.804Z,96159.00
